createdAt,value
2023-02-11T00:00:04.957Z,2460.00
2023-02-11T00:00:14.996Z,2460.00
2023-02-11T00:00:24.970Z,2470.00
2023-02-11T00:00:35.074Z,2474.00
2023-02-11T00:00:45.022Z,2480.00
2023-02-11T00:00:55.006Z,2478.00
2023-02-11T00:01:05.011Z,2473.00
2023-02-11T00:01:15.035Z,2475.00
2023-02-11T00:01:25.041Z,2471.00
2023-02-11T00:01:35.050Z,2465.00
2023-02-11T00:01:45.061Z,2463.00
2023-02-11T00:01:55.060Z,2468.00
2023-02-11T00:02:05.067Z,2458.00
2023-02-11T00:02:15.098Z,2455.00
2023-02-11T00:02:25.099Z,2447.00
2023-02-11T00:02:35.147Z,2429.00
2023-02-11T00:02:47.728Z,2413.00
2023-02-11T00:02:55.113Z,2427.00
2023-02-11T00:03:05.120Z,2424.00
2023-02-11T00:03:15.190Z,2409.00
2023-02-11T00:03:25.135Z,2398.00
2023-02-11T00:03:35.158Z,2388.00
2023-02-11T00:03:45.179Z,2384.00
2023-02-11T00:03:55.108Z,2375.00
2023-02-11T00:04:05.087Z,2380.00
2023-02-11T00:04:15.093Z,2384.00
2023-02-11T00:04:25.092Z,2389.00
2023-02-11T00:04:35.092Z,2383.00
2023-02-11T00:04:45.112Z,2380.00
2023-02-11T00:04:55.105Z,2373.00
2023-02-11T00:05:05.103Z,2372.00
2023-02-11T00:05:15.104Z,2376.00
2023-02-11T00:05:25.088Z,2370.00
2023-02-11T00:05:35.172Z,2357.00
2023-02-11T00:05:45.095Z,2349.00
2023-02-11T00:05:55.094Z,2352.00
2023-02-11T00:06:05.094Z,2361.00
2023-02-11T00:06:15.097Z,2357.00
2023-02-11T00:06:25.120Z,2357.00
2023-02-11T00:06:35.094Z,2362.00
2023-02-11T00:06:45.093Z,2349.00
2023-02-11T00:06:55.103Z,2335.00
2023-02-11T00:07:05.102Z,2321.00
2023-02-11T00:07:15.110Z,2324.00
2023-02-11T00:07:25.096Z,2316.00
2023-02-11T00:07:35.096Z,2308.00
2023-02-11T00:07:45.106Z,2311.00
2023-02-11T00:07:55.106Z,2304.00
2023-02-11T00:08:05.099Z,2289.00
2023-02-11T00:08:15.130Z,2273.00
2023-02-11T00:08:25.090Z,2250.00
2023-02-11T00:08:35.090Z,2236.00
2023-02-11T00:08:45.099Z,2226.00
2023-02-11T00:08:55.092Z,2224.00
2023-02-11T00:09:05.100Z,2220.00
2023-02-11T00:09:15.096Z,2216.00
2023-02-11T00:09:25.085Z,2209.00
2023-02-11T00:09:35.093Z,2203.00
2023-02-11T00:09:45.103Z,2197.00
2023-02-11T00:09:55.096Z,2200.00
2023-02-11T00:10:05.111Z,2195.00
2023-02-11T00:10:15.068Z,2208.00
2023-02-11T00:10:25.091Z,2211.00
2023-02-11T00:10:35.071Z,2215.00
2023-02-11T00:10:45.165Z,2212.00
2023-02-11T00:10:55.080Z,2215.00
2023-02-11T00:11:05.088Z,2207.00
2023-02-11T00:11:15.093Z,2204.00
2023-02-11T00:11:25.053Z,2198.00
2023-02-11T00:11:35.077Z,2191.00
2023-02-11T00:11:45.060Z,2185.00
2023-02-11T00:11:55.071Z,2181.00
2023-02-11T00:12:05.071Z,2181.00
2023-02-11T00:12:15.063Z,2181.00
2023-02-11T00:12:25.069Z,2180.00
2023-02-11T00:12:35.071Z,2169.00
2023-02-11T00:12:45.071Z,2169.00
2023-02-11T00:12:55.077Z,2170.00
2023-02-11T00:13:05.061Z,2178.00
2023-02-11T00:13:15.080Z,2176.00
2023-02-11T00:13:25.070Z,2174.00
2023-02-11T00:13:35.075Z,2169.00
2023-02-11T00:13:45.060Z,2173.00
2023-02-11T00:13:55.115Z,2167.00
2023-02-11T00:14:05.108Z,2173.00
2023-02-11T00:14:15.082Z,2166.00
2023-02-11T00:14:25.130Z,2172.00
2023-02-11T00:14:35.129Z,2174.00
2023-02-11T00:14:45.131Z,2169.00
2023-02-11T00:14:55.144Z,2172.00
2023-02-11T00:15:05.147Z,2172.00
2023-02-11T00:15:15.157Z,2175.00
2023-02-11T00:15:25.177Z,2174.00
2023-02-11T00:15:35.177Z,2173.00
2023-02-11T00:15:45.272Z,2175.00
2023-02-11T00:15:55.203Z,2177.00
2023-02-11T00:16:05.210Z,2177.00
2023-02-11T00:16:15.223Z,2187.00
2023-02-11T00:16:25.264Z,2192.00
2023-02-11T00:16:35.334Z,2201.00
2023-02-11T00:16:45.290Z,2204.00
2023-02-11T00:16:55.307Z,2205.00
2023-02-11T00:17:05.248Z,2207.00
2023-02-11T00:17:15.252Z,2211.00
2023-02-11T00:17:25.286Z,2214.00
2023-02-11T00:17:35.269Z,2218.00
2023-02-11T00:17:45.283Z,2223.00
2023-02-11T00:17:55.296Z,2222.00
2023-02-11T00:18:05.313Z,2228.00
2023-02-11T00:18:15.315Z,2235.00
2023-02-11T00:18:25.326Z,2246.00
2023-02-11T00:18:35.328Z,2249.00
2023-02-11T00:18:45.331Z,2247.00
2023-02-11T00:18:55.356Z,2246.00
2023-02-11T00:19:05.358Z,2255.00
2023-02-11T00:19:15.347Z,2248.00
2023-02-11T00:19:25.372Z,2252.00
2023-02-11T00:19:35.400Z,2255.00
2023-02-11T00:19:45.369Z,2264.00
2023-02-11T00:19:55.418Z,2268.00
2023-02-11T00:20:07.916Z,2264.00
2023-02-11T00:20:15.430Z,2264.00
2023-02-11T00:20:25.413Z,2264.00
2023-02-11T00:20:35.423Z,2264.00
2023-02-11T00:20:45.468Z,2264.00
2023-02-11T00:20:55.415Z,2257.00
2023-02-11T00:21:05.401Z,2241.00
2023-02-11T00:21:15.389Z,2224.00
2023-02-11T00:21:25.411Z,2218.00
2023-02-11T00:21:35.377Z,2221.00
2023-02-11T00:21:45.393Z,2222.00
2023-02-11T00:21:55.403Z,2225.00
2023-02-11T00:22:05.387Z,2233.00
2023-02-11T00:22:15.397Z,2233.00
2023-02-11T00:22:25.384Z,2234.00
2023-02-11T00:22:35.392Z,2237.00
2023-02-11T00:22:45.412Z,2236.00
2023-02-11T00:22:55.401Z,2238.00
2023-02-11T00:23:05.395Z,2235.00
2023-02-11T00:23:15.405Z,2228.00
2023-02-11T00:23:25.403Z,2227.00
2023-02-11T00:23:35.393Z,2228.00
2023-02-11T00:23:45.391Z,2229.00
2023-02-11T00:23:55.388Z,2231.00
2023-02-11T00:24:05.386Z,2221.00
2023-02-11T00:24:15.402Z,2219.00
2023-02-11T00:24:25.394Z,2213.00
2023-02-11T00:24:35.392Z,2214.00
2023-02-11T00:24:45.392Z,2218.00
2023-02-11T00:24:55.401Z,2216.00
2023-02-11T00:25:05.392Z,2212.00
2023-02-11T00:25:15.405Z,2209.00
2023-02-11T00:25:25.402Z,2204.00
2023-02-11T00:25:35.386Z,2202.00
2023-02-11T00:25:45.410Z,2195.00
2023-02-11T00:25:55.416Z,2193.00
2023-02-11T00:26:05.373Z,2190.00
2023-02-11T00:26:15.379Z,2196.00
2023-02-11T00:26:25.396Z,2193.00
2023-02-11T00:26:35.404Z,2197.00
2023-02-11T00:26:45.383Z,2202.00
2023-02-11T00:26:55.377Z,2198.00
2023-02-11T00:27:05.365Z,2200.00
2023-02-11T00:27:15.379Z,2197.00
2023-02-11T00:27:25.367Z,2199.00
2023-02-11T00:27:35.362Z,2206.00
2023-02-11T00:27:45.411Z,2206.00
2023-02-11T00:27:55.405Z,2211.00
2023-02-11T00:28:05.430Z,2199.00
2023-02-11T00:28:15.410Z,2203.00
2023-02-11T00:28:25.423Z,2208.00
2023-02-11T00:28:35.409Z,2200.00
2023-02-11T00:28:45.387Z,2216.00
2023-02-11T00:28:55.384Z,2227.00
2023-02-11T00:29:05.370Z,2232.00
2023-02-11T00:29:15.383Z,2241.00
2023-02-11T00:29:25.375Z,2256.00
2023-02-11T00:29:35.376Z,2264.00
2023-02-11T00:29:45.363Z,2282.00
2023-02-11T00:29:55.380Z,2290.00
2023-02-11T00:30:05.369Z,2287.00
2023-02-11T00:30:15.358Z,2284.00
2023-02-11T00:30:25.391Z,2282.00
2023-02-11T00:30:35.484Z,2281.00
2023-02-11T00:30:45.473Z,2282.00
2023-02-11T00:30:55.488Z,2273.00
2023-02-11T00:31:05.592Z,2263.00
2023-02-11T00:31:15.501Z,2263.00
2023-02-11T00:31:25.578Z,2259.00
2023-02-11T00:31:35.509Z,2258.00
2023-02-11T00:31:45.541Z,2246.00
2023-02-11T00:31:55.562Z,2238.00
2023-02-11T00:32:05.380Z,2241.00
2023-02-11T00:32:15.384Z,2247.00
2023-02-11T00:32:25.393Z,2250.00
2023-02-11T00:32:35.406Z,2246.00
2023-02-11T00:32:45.381Z,2238.00
2023-02-11T00:32:55.382Z,2240.00
2023-02-11T00:33:05.392Z,2238.00
2023-02-11T00:33:15.372Z,2235.00
2023-02-11T00:33:25.404Z,2221.00
2023-02-11T00:33:35.389Z,2214.00
2023-02-11T00:33:45.382Z,2209.00
2023-02-11T00:33:55.386Z,2199.00
2023-02-11T00:34:05.393Z,2184.00
2023-02-11T00:34:15.384Z,2182.00
2023-02-11T00:34:25.402Z,2187.00
2023-02-11T00:34:35.380Z,2188.00
2023-02-11T00:34:45.394Z,2199.00
2023-02-11T00:34:55.451Z,2199.00
2023-02-11T00:35:05.391Z,2186.00
2023-02-11T00:35:15.400Z,2192.00
2023-02-11T00:35:25.383Z,2185.00
2023-02-11T00:35:35.364Z,2192.00
2023-02-11T00:35:45.394Z,2184.00
2023-02-11T00:35:55.378Z,2193.00
2023-02-11T00:36:05.432Z,2201.00
2023-02-11T00:36:15.404Z,2206.00
2023-02-11T00:36:25.398Z,2214.00
2023-02-11T00:36:35.366Z,2221.00
2023-02-11T00:36:45.378Z,2227.00
2023-02-11T00:36:55.383Z,2233.00
2023-02-11T00:37:05.385Z,2231.00
2023-02-11T00:37:15.363Z,2235.00
2023-02-11T00:37:25.352Z,2231.00
2023-02-11T00:37:35.368Z,2222.00
2023-02-11T00:37:45.360Z,2216.00
2023-02-11T00:37:55.362Z,2217.00
2023-02-11T00:38:05.369Z,2210.00
2023-02-11T00:38:15.381Z,2219.00
2023-02-11T00:38:25.365Z,2213.00
2023-02-11T00:38:35.355Z,2211.00
2023-02-11T00:38:45.394Z,2203.00
2023-02-11T00:38:55.404Z,2206.00
2023-02-11T00:39:05.396Z,2211.00
2023-02-11T00:39:15.421Z,2202.00
2023-02-11T00:39:25.418Z,2200.00
2023-02-11T00:39:35.434Z,2201.00
2023-02-11T00:39:45.472Z,2192.00
2023-02-11T00:39:55.438Z,2194.00
2023-02-11T00:40:06.839Z,2200.00
2023-02-11T00:40:15.431Z,2233.00
2023-02-11T00:40:25.637Z,2222.00
2023-02-11T00:40:35.595Z,2210.00
2023-02-11T00:40:45.641Z,2198.00
2023-02-11T00:40:55.605Z,2188.00
2023-02-11T00:41:05.683Z,2185.00
2023-02-11T00:41:15.589Z,2182.00
2023-02-11T00:41:25.589Z,2173.00
2023-02-11T00:41:35.607Z,2174.00
2023-02-11T00:41:45.605Z,2176.00
2023-02-11T00:41:55.602Z,2166.00
2023-02-11T00:42:05.599Z,2169.00
2023-02-11T00:42:15.616Z,2179.00
2023-02-11T00:42:25.609Z,2177.00
2023-02-11T00:42:35.607Z,2179.00
2023-02-11T00:42:45.603Z,2181.00
2023-02-11T00:42:55.606Z,2182.00
2023-02-11T00:43:05.599Z,2185.00
2023-02-11T00:43:15.588Z,2186.00
2023-02-11T00:43:25.599Z,2179.00
2023-02-11T00:43:35.612Z,2176.00
2023-02-11T00:43:45.610Z,2169.00
2023-02-11T00:43:55.614Z,2162.00
2023-02-11T00:44:05.593Z,2150.00
2023-02-11T00:44:15.606Z,2151.00
2023-02-11T00:44:25.629Z,2143.00
2023-02-11T00:44:35.611Z,2139.00
2023-02-11T00:44:45.595Z,2127.00
2023-02-11T00:44:55.597Z,2119.00
2023-02-11T00:45:05.631Z,2110.00
2023-02-11T00:45:15.619Z,2102.00
2023-02-11T00:45:25.577Z,2083.00
2023-02-11T00:45:35.597Z,2069.00
2023-02-11T00:45:45.618Z,2064.00
2023-02-11T00:45:55.643Z,2062.00
2023-02-11T00:46:05.625Z,2062.00
2023-02-11T00:46:15.688Z,2053.00
2023-02-11T00:46:25.718Z,2047.00
2023-02-11T00:46:35.694Z,2042.00
2023-02-11T00:46:45.705Z,2040.00
2023-02-11T00:46:55.662Z,2029.00
2023-02-11T00:47:05.665Z,2032.00
2023-02-11T00:47:15.652Z,2031.00
2023-02-11T00:47:25.686Z,2038.00
2023-02-11T00:47:35.672Z,2035.00
2023-02-11T00:47:45.678Z,2027.00
2023-02-11T00:47:55.720Z,2024.00
2023-02-11T00:48:05.713Z,2017.00
2023-02-11T00:48:15.689Z,2008.00
2023-02-11T00:48:25.744Z,2006.00
2023-02-11T00:48:35.734Z,2007.00
2023-02-11T00:48:45.765Z,2005.00
2023-02-11T00:48:55.762Z,2003.00
2023-02-11T00:49:05.752Z,2007.00
2023-02-11T00:49:15.768Z,2004.00
2023-02-11T00:49:25.792Z,2005.00
2023-02-11T00:49:35.780Z,1997.00
2023-02-11T00:49:45.771Z,1996.00
2023-02-11T00:49:55.814Z,1998.00
2023-02-11T00:50:05.791Z,2000.00
2023-02-11T00:50:15.819Z,1994.00
2023-02-11T00:50:25.832Z,2000.00
2023-02-11T00:50:35.857Z,2009.00
2023-02-11T00:50:45.844Z,2008.00
2023-02-11T00:50:55.975Z,2017.00
2023-02-11T00:51:05.967Z,2022.00
2023-02-11T00:51:16.010Z,2015.00
2023-02-11T00:51:25.960Z,2009.00
2023-02-11T00:51:35.999Z,2010.00
2023-02-11T00:51:45.973Z,2015.00
2023-02-11T00:51:55.949Z,2040.00
2023-02-11T00:52:05.957Z,2040.00
2023-02-11T00:52:15.988Z,2046.00
2023-02-11T00:52:25.947Z,2053.00
2023-02-11T00:52:35.974Z,2046.00
2023-02-11T00:52:45.961Z,2047.00
2023-02-11T00:52:55.948Z,2044.00
2023-02-11T00:53:05.971Z,2053.00
2023-02-11T00:53:15.966Z,2056.00
2023-02-11T00:53:25.977Z,2056.00
2023-02-11T00:53:35.971Z,2036.00
2023-02-11T00:53:46.006Z,2025.00
2023-02-11T00:53:56.012Z,2007.00
2023-02-11T00:54:06.000Z,1997.00
2023-02-11T00:54:16.002Z,1989.00
2023-02-11T00:54:27.859Z,1992.00
2023-02-11T00:54:36.043Z,2033.00
2023-02-11T00:54:46.032Z,2056.00
2023-02-11T00:54:56.063Z,2045.00
2023-02-11T00:55:06.026Z,2043.00
2023-02-11T00:55:16.037Z,2041.00
2023-02-11T00:55:26.001Z,2033.00
2023-02-11T00:55:36.035Z,2029.00
2023-02-11T00:55:46.019Z,2051.00
2023-02-11T00:55:56.013Z,2054.00
2023-02-11T00:56:06.043Z,2064.00
2023-02-11T00:56:16.013Z,2070.00
2023-02-11T00:56:26.075Z,2078.00
2023-02-11T00:56:36.011Z,2084.00
2023-02-11T00:56:46.020Z,2090.00
2023-02-11T00:56:56.027Z,2091.00
2023-02-11T00:57:06.019Z,2092.00
2023-02-11T00:57:16.012Z,2078.00
2023-02-11T00:57:26.005Z,2077.00
2023-02-11T00:57:36.012Z,2071.00
2023-02-11T00:57:46.038Z,2077.00
2023-02-11T00:57:56.042Z,2081.00
2023-02-11T00:58:06.022Z,2081.00
2023-02-11T00:58:16.017Z,2078.00
2023-02-11T00:58:26.015Z,2080.00
2023-02-11T00:58:36.018Z,2080.00
2023-02-11T00:58:46.012Z,2087.00
2023-02-11T00:58:56.022Z,2090.00
2023-02-11T00:59:06.019Z,2086.00
2023-02-11T00:59:16.025Z,2085.00
2023-02-11T00:59:26.042Z,2085.00
2023-02-11T00:59:36.027Z,2082.00
2023-02-11T00:59:46.008Z,2073.00
2023-02-11T00:59:56.001Z,2071.00
2023-02-11T01:00:06.027Z,2068.00
2023-02-11T01:00:16.024Z,2073.00
2023-02-11T01:00:26.013Z,2065.00
2023-02-11T01:00:36.025Z,2066.00
2023-02-11T01:00:46.013Z,2073.00
2023-02-11T01:00:56.032Z,2072.00
2023-02-11T01:01:06.070Z,2079.00
2023-02-11T01:01:16.089Z,2087.00
2023-02-11T01:01:26.050Z,2098.00
2023-02-11T01:01:36.132Z,2107.00
2023-02-11T01:01:46.074Z,2126.00
2023-02-11T01:01:56.018Z,2128.00
2023-02-11T01:02:06.013Z,2124.00
2023-02-11T01:02:16.013Z,2113.00
2023-02-11T01:02:26.017Z,2120.00
2023-02-11T01:02:35.994Z,2126.00
2023-02-11T01:02:46.003Z,2129.00
2023-02-11T01:02:56.016Z,2126.00
2023-02-11T01:03:05.996Z,2132.00
2023-02-11T01:03:15.995Z,2128.00
2023-02-11T01:03:26.001Z,2125.00
2023-02-11T01:03:35.991Z,2128.00
2023-02-11T01:03:46.016Z,2131.00
2023-02-11T01:03:56.005Z,2116.00
2023-02-11T01:04:05.987Z,2115.00
2023-02-11T01:04:15.991Z,2103.00
2023-02-11T01:04:25.995Z,2095.00
2023-02-11T01:04:35.999Z,2086.00
2023-02-11T01:04:45.993Z,2086.00
2023-02-11T01:04:56.077Z,2094.00
2023-02-11T01:05:06.023Z,2101.00
2023-02-11T01:05:16.044Z,2107.00
2023-02-11T01:05:26.033Z,2109.00
2023-02-11T01:05:36.023Z,2111.00
2023-02-11T01:05:46.010Z,2120.00
2023-02-11T01:05:55.992Z,2135.00
2023-02-11T01:06:05.995Z,2150.00
2023-02-11T01:06:16.003Z,2160.00
2023-02-11T01:06:26.019Z,2158.00
2023-02-11T01:06:36.003Z,2164.00
2023-02-11T01:06:46.047Z,2174.00
2023-02-11T01:06:56.006Z,2185.00
2023-02-11T01:07:06.000Z,2199.00
2023-02-11T01:07:16.013Z,2213.00
2023-02-11T01:07:26.002Z,2211.00
2023-02-11T01:07:36.003Z,2215.00
2023-02-11T01:07:45.994Z,2212.00
2023-02-11T01:07:55.998Z,2205.00
2023-02-11T01:08:06.014Z,2195.00
2023-02-11T01:08:16.001Z,2185.00
2023-02-11T01:08:26.009Z,2179.00
2023-02-11T01:08:35.999Z,2179.00
2023-02-11T01:08:45.982Z,2184.00
2023-02-11T01:08:55.978Z,2181.00
2023-02-11T01:09:05.967Z,2177.00
2023-02-11T01:09:15.985Z,2184.00
2023-02-11T01:09:26.005Z,2184.00
2023-02-11T01:09:35.976Z,2183.00
2023-02-11T01:09:45.985Z,2186.00
2023-02-11T01:09:55.997Z,2181.00
2023-02-11T01:10:05.990Z,2177.00
2023-02-11T01:10:16.015Z,2163.00
2023-02-11T01:10:26.008Z,2156.00
2023-02-11T01:10:36.000Z,2154.00
2023-02-11T01:10:46.024Z,2144.00
2023-02-11T01:10:56.017Z,2142.00
2023-02-11T01:11:06.019Z,2143.00
2023-02-11T01:11:16.042Z,2147.00
2023-02-11T01:11:26.038Z,2154.00
2023-02-11T01:11:36.033Z,2149.00
2023-02-11T01:11:46.189Z,2152.00
2023-02-11T01:11:56.083Z,2149.00
2023-02-11T01:12:06.056Z,2147.00
2023-02-11T01:12:16.107Z,2141.00
2023-02-11T01:12:26.081Z,2143.00
2023-02-11T01:12:36.634Z,2147.00
2023-02-11T01:12:46.342Z,2162.00
2023-02-11T01:12:56.332Z,2153.00
2023-02-11T01:13:06.366Z,2149.00
2023-02-11T01:13:16.365Z,2147.00
2023-02-11T01:13:26.351Z,2144.00
2023-02-11T01:13:36.334Z,2148.00
2023-02-11T01:13:46.356Z,2148.00
2023-02-11T01:13:56.343Z,2149.00
2023-02-11T01:14:06.338Z,2154.00
2023-02-11T01:14:16.370Z,2160.00
2023-02-11T01:14:26.355Z,2166.00
2023-02-11T01:14:36.339Z,2164.00
2023-02-11T01:14:46.325Z,2169.00
2023-02-11T01:14:56.312Z,2161.00
2023-02-11T01:15:06.343Z,2140.00
2023-02-11T01:15:16.370Z,2100.00
2023-02-11T01:15:26.312Z,2081.00
2023-02-11T01:15:36.405Z,2061.00
2023-02-11T01:15:46.361Z,2053.00
2023-02-11T01:15:56.395Z,2057.00
2023-02-11T01:16:06.387Z,2071.00
2023-02-11T01:16:16.349Z,2079.00
2023-02-11T01:16:26.408Z,2084.00
2023-02-11T01:16:36.345Z,2092.00
2023-02-11T01:16:46.420Z,2092.00
2023-02-11T01:16:56.322Z,2084.00
2023-02-11T01:17:06.329Z,2082.00
2023-02-11T01:17:16.328Z,2075.00
2023-02-11T01:17:26.307Z,2084.00
2023-02-11T01:17:36.348Z,2088.00
2023-02-11T01:17:46.316Z,2085.00
2023-02-11T01:17:56.323Z,2092.00
2023-02-11T01:18:06.335Z,2095.00
2023-02-11T01:18:16.337Z,2092.00
2023-02-11T01:18:26.331Z,2105.00
2023-02-11T01:18:36.330Z,2101.00
2023-02-11T01:18:46.363Z,2117.00
2023-02-11T01:18:56.348Z,2110.00
2023-02-11T01:19:06.352Z,2115.00
2023-02-11T01:19:16.364Z,2103.00
2023-02-11T01:19:26.365Z,2102.00
2023-02-11T01:19:36.370Z,2096.00
2023-02-11T01:19:46.386Z,2092.00
2023-02-11T01:19:56.377Z,2089.00
2023-02-11T01:20:06.385Z,2092.00
2023-02-11T01:20:16.406Z,2105.00
2023-02-11T01:20:26.404Z,2113.00
2023-02-11T01:20:36.399Z,2123.00
2023-02-11T01:20:46.446Z,2132.00
2023-02-11T01:20:56.454Z,2112.00
2023-02-11T01:21:06.421Z,2114.00
2023-02-11T01:21:16.462Z,2121.00
2023-02-11T01:21:26.463Z,2123.00
2023-02-11T01:21:36.462Z,2126.00
2023-02-11T01:21:46.597Z,2116.00
2023-02-11T01:21:56.485Z,2111.00
2023-02-11T01:22:06.498Z,2110.00
2023-02-11T01:22:16.507Z,2097.00
2023-02-11T01:22:26.527Z,2101.00
2023-02-11T01:22:36.523Z,2093.00
2023-02-11T01:22:46.562Z,2087.00
2023-02-11T01:22:56.549Z,2080.00
2023-02-11T01:23:06.539Z,2071.00
2023-02-11T01:23:16.557Z,2060.00
2023-02-11T01:23:26.562Z,2058.00
2023-02-11T01:23:36.563Z,2055.00
2023-02-11T01:23:46.590Z,2036.00
2023-02-11T01:23:56.585Z,2032.00
2023-02-11T01:24:06.588Z,2031.00
2023-02-11T01:24:16.621Z,2031.00
2023-02-11T01:24:26.601Z,2037.00
2023-02-11T01:24:36.608Z,2043.00
2023-02-11T01:24:46.646Z,2047.00
2023-02-11T01:24:56.627Z,2057.00
2023-02-11T01:25:06.635Z,2053.00
2023-02-11T01:25:16.669Z,2057.00
2023-02-11T01:25:26.662Z,2069.00
2023-02-11T01:25:36.665Z,2072.00
2023-02-11T01:25:46.711Z,2080.00
2023-02-11T01:25:56.679Z,2081.00
2023-02-11T01:26:06.671Z,2076.00
2023-02-11T01:26:16.713Z,2093.00
2023-02-11T01:26:26.705Z,2091.00
2023-02-11T01:26:36.702Z,2103.00
2023-02-11T01:26:46.803Z,2104.00
2023-02-11T01:26:56.701Z,2114.00
2023-02-11T01:27:06.732Z,2107.00
2023-02-11T01:27:16.768Z,2107.00
2023-02-11T01:27:26.767Z,2105.00
2023-02-11T01:27:36.776Z,2102.00
2023-02-11T01:27:46.795Z,2090.00
2023-02-11T01:27:56.821Z,2082.00
2023-02-11T01:28:06.850Z,2087.00
2023-02-11T01:28:16.870Z,2077.00
2023-02-11T01:28:26.876Z,2072.00
2023-02-11T01:28:36.849Z,2080.00
2023-02-11T01:28:46.870Z,2083.00
2023-02-11T01:28:56.843Z,2084.00
2023-02-11T01:29:06.844Z,2087.00
2023-02-11T01:29:16.878Z,2108.00
2023-02-11T01:29:26.864Z,2113.00
2023-02-11T01:29:36.861Z,2123.00
2023-02-11T01:29:46.982Z,2125.00
2023-02-11T01:29:56.981Z,2126.00
2023-02-11T01:30:06.968Z,2115.00
2023-02-11T01:30:16.960Z,2114.00
2023-02-11T01:30:26.958Z,2110.00
2023-02-11T01:30:36.961Z,2100.00
2023-02-11T01:30:47.049Z,2097.00
2023-02-11T01:30:56.996Z,2101.00
2023-02-11T01:31:07.018Z,2107.00
2023-02-11T01:31:17.006Z,2096.00
2023-02-11T01:31:27.013Z,2099.00
2023-02-11T01:31:37.033Z,2087.00
2023-02-11T01:31:47.056Z,2058.00
2023-02-11T01:31:57.001Z,2046.00
2023-02-11T01:32:07.006Z,2033.00
2023-02-11T01:32:17.035Z,2036.00
2023-02-11T01:32:27.036Z,2042.00
2023-02-11T01:32:36.992Z,2044.00
2023-02-11T01:32:47.044Z,2042.00
2023-02-11T01:32:57.040Z,2039.00
2023-02-11T01:33:07.049Z,2036.00
2023-02-11T01:33:17.075Z,2044.00
2023-02-11T01:33:27.065Z,2043.00
2023-02-11T01:33:37.074Z,2042.00
2023-02-11T01:33:47.085Z,2029.00
2023-02-11T01:33:57.090Z,2033.00
2023-02-11T01:34:07.068Z,2032.00
2023-02-11T01:34:17.104Z,2038.00
2023-02-11T01:34:27.104Z,2046.00
2023-02-11T01:34:37.110Z,2051.00
2023-02-11T01:34:47.146Z,2055.00
2023-02-11T01:34:57.145Z,2053.00
2023-02-11T01:35:07.147Z,2036.00
2023-02-11T01:35:17.157Z,2015.00
2023-02-11T01:35:27.158Z,2012.00
2023-02-11T01:35:37.164Z,2016.00
2023-02-11T01:35:47.182Z,2006.00
2023-02-11T01:35:57.195Z,1994.00
2023-02-11T01:36:07.185Z,1994.00
2023-02-11T01:36:17.218Z,1987.00
2023-02-11T01:36:27.311Z,1983.00
2023-02-11T01:36:37.228Z,1984.00
2023-02-11T01:36:47.303Z,1982.00
2023-02-11T01:36:57.232Z,1990.00
2023-02-11T01:37:07.280Z,1984.00
2023-02-11T01:37:17.284Z,1997.00
2023-02-11T01:37:27.247Z,2014.00
2023-02-11T01:37:37.265Z,2024.00
2023-02-11T01:37:47.281Z,2039.00
2023-02-11T01:37:57.442Z,2044.00
2023-02-11T01:38:07.282Z,2043.00
2023-02-11T01:38:17.340Z,2047.00
2023-02-11T01:38:27.337Z,2046.00
2023-02-11T01:38:37.313Z,2063.00
2023-02-11T01:38:47.346Z,2070.00
2023-02-11T01:38:57.376Z,2077.00
2023-02-11T01:39:07.355Z,2081.00
2023-02-11T01:39:17.496Z,2088.00
2023-02-11T01:39:27.480Z,2099.00
2023-02-11T01:39:37.464Z,2098.00
2023-02-11T01:39:47.463Z,2083.00
2023-02-11T01:39:57.493Z,2078.00
2023-02-11T01:40:07.453Z,2075.00
2023-02-11T01:40:17.523Z,2073.00
2023-02-11T01:40:27.469Z,2083.00
2023-02-11T01:40:37.480Z,2077.00
2023-02-11T01:40:47.462Z,2081.00
2023-02-11T01:40:57.473Z,2088.00
2023-02-11T01:41:07.474Z,2082.00
2023-02-11T01:41:17.467Z,2082.00
2023-02-11T01:41:27.472Z,2076.00
2023-02-11T01:41:37.481Z,2078.00
2023-02-11T01:41:47.534Z,2088.00
2023-02-11T01:41:57.500Z,2081.00
2023-02-11T01:42:07.488Z,2090.00
2023-02-11T01:42:17.520Z,2080.00
2023-02-11T01:42:27.502Z,2082.00
2023-02-11T01:42:37.515Z,2065.00
2023-02-11T01:42:49.438Z,2054.00
2023-02-11T01:42:57.596Z,2101.00
2023-02-11T01:43:07.572Z,2098.00
2023-02-11T01:43:17.581Z,2095.00
2023-02-11T01:43:27.610Z,2080.00
2023-02-11T01:43:37.555Z,2085.00
2023-02-11T01:43:47.579Z,2078.00
2023-02-11T01:43:57.583Z,2081.00
2023-02-11T01:44:07.552Z,2090.00
2023-02-11T01:44:17.560Z,2094.00
2023-02-11T01:44:27.577Z,2114.00
2023-02-11T01:44:37.560Z,2132.00
2023-02-11T01:44:47.591Z,2138.00
2023-02-11T01:44:57.584Z,2147.00
2023-02-11T01:45:07.572Z,2147.00
2023-02-11T01:45:17.569Z,2139.00
2023-02-11T01:45:27.597Z,2132.00
2023-02-11T01:45:37.567Z,2130.00
2023-02-11T01:45:47.602Z,2127.00
2023-02-11T01:45:57.570Z,2111.00
2023-02-11T01:46:07.608Z,2095.00
2023-02-11T01:46:17.589Z,2078.00
2023-02-11T01:46:27.619Z,2065.00
2023-02-11T01:46:37.658Z,2067.00
2023-02-11T01:46:47.632Z,2056.00
2023-02-11T01:46:57.627Z,2082.00
2023-02-11T01:47:07.554Z,2092.00
2023-02-11T01:47:17.562Z,2103.00
2023-02-11T01:47:27.556Z,2121.00
2023-02-11T01:47:37.564Z,2146.00
2023-02-11T01:47:47.578Z,2156.00
2023-02-11T01:47:57.574Z,2165.00
2023-02-11T01:48:07.564Z,2188.00
2023-02-11T01:48:17.577Z,2183.00
2023-02-11T01:48:27.580Z,2167.00
2023-02-11T01:48:37.556Z,2170.00
2023-02-11T01:48:47.601Z,2175.00
2023-02-11T01:48:57.664Z,2171.00
2023-02-11T01:49:07.618Z,2176.00
2023-02-11T01:49:17.667Z,2181.00
2023-02-11T01:49:27.644Z,2190.00
2023-02-11T01:49:37.647Z,2186.00
2023-02-11T01:49:47.607Z,2172.00
2023-02-11T01:49:57.643Z,2176.00
2023-02-11T01:50:07.637Z,2179.00
2023-02-11T01:50:17.636Z,2178.00
2023-02-11T01:50:27.686Z,2180.00
2023-02-11T01:50:37.664Z,2181.00
2023-02-11T01:50:47.676Z,2181.00
2023-02-11T01:50:57.680Z,2190.00
2023-02-11T01:51:07.697Z,2198.00
2023-02-11T01:51:17.692Z,2196.00
2023-02-11T01:51:27.704Z,2198.00
2023-02-11T01:51:37.705Z,2188.00
2023-02-11T01:51:47.704Z,2189.00
2023-02-11T01:51:57.799Z,2192.00
2023-02-11T01:52:07.765Z,2194.00
2023-02-11T01:52:17.742Z,2204.00
2023-02-11T01:52:27.750Z,2224.00
2023-02-11T01:52:37.749Z,2218.00
2023-02-11T01:52:47.755Z,2213.00
2023-02-11T01:52:57.795Z,2201.00
2023-02-11T01:53:07.784Z,2197.00
2023-02-11T01:53:17.795Z,2187.00
2023-02-11T01:53:27.814Z,2162.00
2023-02-11T01:53:37.810Z,2154.00
2023-02-11T01:53:47.855Z,2144.00
2023-02-11T01:53:57.853Z,2109.00
2023-02-11T01:54:07.819Z,2092.00
2023-02-11T01:54:17.808Z,2094.00
2023-02-11T01:54:27.884Z,2082.00
2023-02-11T01:54:37.884Z,2080.00
2023-02-11T01:54:47.866Z,2070.00
2023-02-11T01:54:57.874Z,2070.00
2023-02-11T01:55:07.869Z,2064.00
2023-02-11T01:55:17.886Z,2066.00
2023-02-11T01:55:27.909Z,2062.00
2023-02-11T01:55:37.886Z,2050.00
2023-02-11T01:55:48.331Z,2056.00
2023-02-11T01:55:57.905Z,2077.00
2023-02-11T01:56:07.901Z,2108.00
2023-02-11T01:56:17.904Z,2113.00
2023-02-11T01:56:27.903Z,2114.00
2023-02-11T01:56:37.927Z,2120.00
2023-02-11T01:56:47.899Z,2120.00
2023-02-11T01:56:57.973Z,2138.00
2023-02-11T01:57:07.911Z,2122.00
2023-02-11T01:57:17.933Z,2116.00
2023-02-11T01:57:27.933Z,2116.00
2023-02-11T01:57:37.920Z,2112.00
2023-02-11T01:57:47.918Z,2107.00
2023-02-11T01:57:57.904Z,2093.00
2023-02-11T01:58:07.910Z,2087.00
2023-02-11T01:58:17.913Z,2087.00
2023-02-11T01:58:27.901Z,2088.00
2023-02-11T01:58:37.900Z,2087.00
2023-02-11T01:58:47.888Z,2073.00
2023-02-11T01:58:57.902Z,2079.00
2023-02-11T01:59:07.909Z,2068.00
2023-02-11T01:59:17.892Z,2070.00
2023-02-11T01:59:27.906Z,2075.00
2023-02-11T01:59:37.912Z,2066.00
2023-02-11T01:59:47.896Z,2070.00
2023-02-11T01:59:57.893Z,2073.00
2023-02-11T02:00:07.888Z,2090.00
2023-02-11T02:00:17.886Z,2087.00
2023-02-11T02:00:27.909Z,2095.00
2023-02-11T02:00:37.904Z,2107.00
2023-02-11T02:00:47.872Z,2100.00
2023-02-11T02:00:57.884Z,2114.00